createdAt,value
2019-03-04T00:02:27.030Z,11.50
2019-03-04T00:04:57.139Z,11.50
2019-03-04T00:07:26.252Z,11.50
2019-03-04T00:09:55.342Z,11.40
2019-03-04T00:12:24.530Z,11.40
2019-03-04T00:14:55.702Z,11.30
2019-03-04T00:17:24.794Z,11.30
2019-03-04T00:19:53.934Z,11.40
2019-03-04T00:22:23.034Z,11.50
2019-03-04T00:24:52.295Z,11.50
2019-03-04T00:27:21.414Z,11.50
2019-03-04T00:29:50.991Z,11.40
2019-03-04T00:32:20.386Z,11.40
2019-03-04T00:34:49.822Z,11.30
2019-03-04T00:37:19.050Z,11.30
2019-03-04T00:39:48.146Z,11.30
2019-03-04T00:42:17.195Z,11.40
2019-03-04T00:44:46.317Z,11.30
2019-03-04T00:47:16.035Z,11.30
2019-03-04T00:49:45.393Z,11.20
2019-03-04T00:52:14.909Z,11.20
2019-03-04T00:54:44.996Z,11.20
2019-03-04T00:57:14.575Z,11.20
2019-03-04T00:59:43.933Z,11.30
2019-03-04T01:02:13.041Z,11.40
2019-03-04T01:04:42.285Z,11.40
2019-03-04T01:07:12.582Z,11.30
2019-03-04T01:09:41.695Z,11.40
2019-03-04T01:12:10.991Z,11.30
2019-03-04T01:14:40.091Z,11.20
2019-03-04T01:17:09.254Z,11.20
2019-03-04T01:19:40.707Z,11.20
2019-03-04T01:22:09.836Z,11.40
2019-03-04T01:24:38.930Z,11.50
2019-03-04T01:27:08.065Z,11.50
2019-03-04T01:29:37.184Z,11.50
2019-03-04T01:32:06.548Z,11.50
2019-03-04T01:34:35.816Z,11.40
2019-03-04T01:37:04.980Z,11.30
2019-03-04T01:39:34.105Z,11.30
2019-03-04T01:42:03.313Z,11.30
2019-03-04T01:44:32.590Z,11.40
2019-03-04T01:47:01.696Z,11.60
2019-03-04T01:49:50.109Z,11.60
2019-03-04T01:52:20.462Z,11.60
2019-03-04T01:54:49.591Z,11.60
2019-03-04T01:57:22.109Z,11.60
2019-03-04T01:59:51.245Z,11.40
2019-03-04T02:02:20.367Z,11.40
2019-03-04T02:04:49.511Z,11.40
2019-03-04T02:07:18.609Z,11.40
2019-03-04T02:09:47.709Z,11.50
2019-03-04T02:12:17.937Z,11.50
2019-03-04T02:14:47.303Z,11.50
2019-03-04T02:17:17.295Z,11.40
2019-03-04T02:19:46.476Z,11.40
2019-03-04T02:22:15.650Z,11.20
2019-03-04T02:24:44.771Z,11.10
2019-03-04T02:27:13.954Z,11.10
2019-03-04T02:29:43.092Z,11.10
2019-03-04T02:32:12.232Z,11.30
2019-03-04T02:34:41.374Z,11.40
2019-03-04T02:37:10.475Z,11.40
2019-03-04T02:39:43.715Z,11.40
2019-03-04T02:42:14.253Z,11.20
2019-03-04T02:44:43.446Z,11.10
2019-03-04T02:47:12.647Z,11.00
2019-03-04T02:49:41.747Z,10.90
2019-03-04T02:52:10.831Z,11.00
2019-03-04T02:54:39.985Z,11.00
2019-03-04T02:57:09.098Z,10.90
2019-03-04T02:59:38.226Z,10.80
2019-03-04T03:02:08.366Z,10.70
2019-03-04T03:04:37.536Z,10.60
2019-03-04T03:07:06.697Z,10.50
2019-03-04T03:09:35.870Z,10.50
2019-03-04T03:12:04.967Z,10.50
2019-03-04T03:14:34.080Z,10.70
2019-03-04T03:17:03.390Z,10.80
2019-03-04T03:19:33.177Z,10.80
2019-03-04T03:22:02.303Z,10.90
2019-03-04T03:24:31.435Z,10.80
2019-03-04T03:27:00.643Z,10.70
2019-03-04T03:29:29.683Z,10.60
2019-03-04T03:31:58.767Z,10.80
2019-03-04T03:34:27.878Z,10.90
2019-03-04T03:36:57.000Z,10.90
2019-03-04T03:39:26.219Z,11.00
2019-03-04T03:41:55.370Z,10.80
2019-03-04T03:44:24.481Z,10.80
2019-03-04T03:46:53.595Z,10.70
2019-03-04T03:49:22.713Z,10.70
2019-03-04T03:51:51.886Z,10.70
2019-03-04T03:54:21.116Z,10.80
2019-03-04T03:56:50.228Z,10.80
2019-03-04T03:59:19.431Z,10.70
2019-03-04T04:01:48.575Z,10.70
2019-03-04T04:04:17.677Z,10.70
2019-03-04T04:06:46.713Z,10.80
2019-03-04T04:09:15.843Z,10.50
2019-03-04T04:11:44.934Z,10.40
2019-03-04T04:14:14.035Z,10.20
2019-03-04T04:16:43.166Z,10.00
2019-03-04T04:19:12.300Z,9.20
2019-03-04T04:21:41.422Z,8.30
2019-03-04T04:24:10.538Z,8.00
2019-03-04T04:26:39.842Z,7.90
2019-03-04T04:29:11.149Z,7.80
2019-03-04T04:31:43.050Z,7.80
2019-03-04T04:34:12.228Z,7.80
2019-03-04T04:36:52.741Z,7.80
2019-03-04T04:39:21.819Z,7.70
2019-03-04T04:41:50.843Z,7.70
2019-03-04T04:44:28.400Z,7.60
2019-03-04T04:46:58.774Z,7.50
2019-03-04T04:49:30.123Z,7.50
2019-03-04T04:51:59.817Z,7.50
2019-03-04T04:54:29.128Z,7.50
2019-03-04T04:56:58.268Z,7.40
2019-03-04T04:59:27.390Z,7.40
2019-03-04T05:01:56.764Z,7.40
2019-03-04T05:04:26.190Z,7.40
2019-03-04T05:06:55.692Z,7.40
2019-03-04T05:09:25.764Z,7.50
2019-03-04T05:11:54.866Z,7.40
2019-03-04T05:14:25.482Z,7.40
2019-03-04T05:16:54.702Z,7.50
2019-03-04T05:19:23.744Z,7.60
2019-03-04T05:21:55.344Z,7.70
2019-03-04T05:24:26.170Z,7.70
2019-03-04T05:26:55.289Z,7.50
2019-03-04T05:29:24.442Z,7.40
2019-03-04T05:31:53.560Z,7.20
2019-03-04T05:34:22.668Z,7.10
2019-03-04T05:36:51.705Z,7.10
2019-03-04T05:39:21.245Z,7.10
2019-03-04T05:41:50.347Z,7.10
2019-03-04T05:44:19.469Z,7.00
2019-03-04T05:46:48.593Z,7.00
2019-03-04T05:49:17.676Z,7.00
2019-03-04T05:51:46.705Z,7.10
2019-03-04T05:54:15.863Z,7.10
2019-03-04T05:56:44.980Z,7.00
2019-03-04T05:59:19.758Z,7.10
2019-03-04T06:01:54.290Z,7.00
2019-03-04T06:04:23.746Z,7.00
2019-03-04T06:07:11.911Z,7.00
2019-03-04T06:09:41.404Z,7.20
2019-03-04T06:12:10.494Z,7.20
2019-03-04T06:14:39.575Z,7.30
2019-03-04T06:17:08.754Z,7.20
2019-03-04T06:19:37.922Z,7.30
2019-03-04T06:22:07.380Z,7.40
2019-03-04T06:24:39.072Z,7.50
2019-03-04T06:27:08.950Z,7.50
2019-03-04T06:29:38.048Z,7.60
2019-03-04T06:32:10.491Z,7.60
2019-03-04T06:34:39.552Z,7.60
2019-03-04T06:37:08.677Z,7.60
2019-03-04T06:39:37.944Z,7.50
2019-03-04T06:42:07.063Z,7.50
2019-03-04T06:44:36.180Z,7.50
2019-03-04T06:47:05.379Z,7.50
2019-03-04T06:49:34.559Z,7.50
2019-03-04T06:52:04.056Z,7.50
2019-03-04T06:55:13.156Z,7.50
2019-03-04T06:57:48.535Z,7.50
2019-03-04T07:00:49.787Z,7.50
2019-03-04T07:03:33.638Z,7.50
2019-03-04T07:06:03.482Z,7.50
2019-03-04T07:09:02.039Z,7.50
2019-03-04T07:11:31.599Z,7.50
2019-03-04T07:14:00.707Z,7.40
2019-03-04T07:16:31.950Z,7.30
2019-03-04T07:19:05.363Z,6.90
2019-03-04T07:21:34.554Z,6.50
2019-03-04T07:24:03.698Z,6.30
2019-03-04T07:26:35.208Z,6.20
2019-03-04T07:29:04.518Z,6.20
2019-03-04T07:31:33.776Z,6.20
2019-03-04T07:34:05.820Z,6.10
2019-03-04T07:36:36.310Z,6.00
2019-03-04T07:39:17.217Z,5.90
2019-03-04T07:41:48.191Z,5.80
2019-03-04T07:44:17.295Z,5.70
2019-03-04T07:46:46.445Z,5.60
2019-03-04T07:49:15.569Z,5.50
2019-03-04T07:51:44.678Z,5.50
2019-03-04T07:54:13.927Z,5.50
2019-03-04T07:56:43.080Z,5.50
2019-03-04T07:59:12.174Z,5.50
2019-03-04T08:01:45.227Z,5.50
2019-03-04T08:04:17.703Z,5.60
2019-03-04T08:06:46.791Z,5.60
2019-03-04T08:09:57.093Z,5.60
2019-03-04T08:12:59.326Z,5.60
2019-03-04T08:15:34.513Z,5.60
2019-03-04T08:18:04.671Z,5.60
2019-03-04T08:20:34.036Z,5.50
2019-03-04T08:23:07.101Z,5.50
2019-03-04T08:25:38.769Z,5.60
2019-03-04T08:28:09.510Z,5.60
2019-03-04T08:30:41.558Z,5.60
2019-03-04T08:33:13.444Z,5.60
2019-03-04T08:35:44.780Z,5.60
2019-03-04T08:38:13.916Z,5.60
2019-03-04T08:40:44.482Z,5.70
2019-03-04T08:43:14.691Z,5.70
2019-03-04T08:45:43.823Z,5.80
2019-03-04T08:48:15.820Z,5.90
2019-03-04T08:50:47.013Z,5.90
2019-03-04T08:53:17.294Z,5.90
2019-03-04T08:55:46.750Z,6.00
2019-03-04T08:58:17.352Z,6.10
2019-03-04T09:00:46.828Z,6.20
2019-03-04T09:03:15.996Z,6.30
2019-03-04T09:05:46.321Z,6.50
2019-03-04T09:08:16.542Z,6.50
2019-03-04T09:10:48.146Z,6.60
2019-03-04T09:13:17.284Z,6.60
2019-03-04T09:15:46.535Z,6.80
2019-03-04T09:18:16.782Z,7.10
2019-03-04T09:20:45.930Z,7.30
2019-03-04T09:23:15.041Z,7.50
2019-03-04T09:25:47.884Z,7.60
2019-03-04T09:28:17.040Z,7.90
2019-03-04T09:30:46.183Z,7.90
2019-03-04T09:33:15.345Z,8.00
2019-03-04T09:35:44.486Z,7.70
2019-03-04T09:38:13.780Z,7.60
2019-03-04T09:40:42.939Z,7.50
2019-03-04T09:43:12.049Z,7.70
2019-03-04T09:45:41.250Z,7.70
2019-03-04T09:48:11.995Z,7.70
2019-03-04T09:50:41.304Z,7.70
2019-03-04T09:53:13.857Z,7.70
2019-03-04T09:55:43.065Z,7.70
2019-03-04T09:58:12.212Z,7.80
2019-03-04T10:01:03.170Z,7.90
2019-03-04T10:04:09.463Z,8.20
2019-03-04T10:07:16.176Z,8.40
2019-03-04T10:10:17.832Z,8.10
2019-03-04T10:13:31.201Z,7.90
2019-03-04T10:16:23.674Z,7.90
2019-03-04T10:19:36.884Z,8.10
2019-03-04T10:22:16.155Z,8.20
2019-03-04T10:25:04.600Z,8.00
2019-03-04T10:27:51.293Z,7.80
2019-03-04T10:30:42.037Z,7.80
2019-03-04T10:33:44.984Z,8.00
2019-03-04T10:36:53.697Z,8.00
2019-03-04T10:40:21.978Z,8.10
2019-03-04T10:43:30.993Z,8.10
2019-03-04T10:46:32.814Z,8.00
2019-03-04T10:49:01.934Z,8.10
2019-03-04T10:51:31.135Z,8.00
2019-03-04T10:54:00.936Z,8.00
2019-03-04T10:56:31.329Z,7.90
2019-03-04T10:59:00.556Z,7.70
2019-03-04T11:01:32.883Z,7.80
2019-03-04T11:04:01.999Z,7.90
2019-03-04T11:06:31.229Z,8.10
2019-03-04T11:09:00.383Z,8.50
2019-03-04T11:11:30.257Z,8.70
2019-03-04T11:13:59.492Z,9.10
2019-03-04T11:16:28.742Z,8.60
2019-03-04T11:18:57.857Z,9.00
2019-03-04T11:21:26.981Z,9.30
2019-03-04T11:23:56.103Z,9.20
2019-03-04T11:26:25.308Z,9.00
2019-03-04T11:28:54.446Z,8.80
2019-03-04T11:31:24.040Z,8.60
2019-03-04T11:33:55.122Z,8.50
2019-03-04T11:36:25.546Z,8.40
2019-03-04T11:38:59.961Z,8.30
2019-03-04T11:41:32.197Z,8.40
2019-03-04T11:44:01.290Z,8.20
2019-03-04T11:46:30.410Z,8.20
2019-03-04T11:48:59.493Z,8.10
2019-03-04T11:51:28.606Z,8.30
2019-03-04T11:53:58.666Z,8.30
2019-03-04T11:56:28.988Z,8.40
2019-03-04T11:58:58.139Z,8.30
2019-03-04T12:01:35.782Z,8.20
2019-03-04T12:04:05.312Z,8.50
2019-03-04T12:06:34.740Z,8.40
2019-03-04T12:09:06.683Z,8.40
2019-03-04T12:11:38.438Z,8.40
2019-03-04T12:14:07.755Z,8.40
2019-03-04T12:16:38.926Z,8.40
2019-03-04T12:19:09.621Z,8.40
2019-03-04T12:21:38.815Z,8.70
2019-03-04T12:24:08.108Z,8.80
2019-03-04T12:26:39.545Z,8.90
2019-03-04T12:29:08.669Z,9.00
2019-03-04T12:31:44.508Z,9.00
2019-03-04T12:34:24.935Z,8.80
2019-03-04T12:36:55.702Z,8.80
2019-03-04T12:39:25.240Z,8.80
2019-03-04T12:41:54.717Z,9.00
2019-03-04T12:44:23.963Z,9.10
2019-03-04T12:46:53.122Z,9.10
2019-03-04T12:49:25.550Z,9.10
2019-03-04T12:51:54.777Z,9.00
2019-03-04T12:54:25.137Z,8.80
2019-03-04T12:56:56.675Z,8.70
2019-03-04T12:59:30.574Z,8.60
2019-03-04T13:01:59.794Z,8.60
2019-03-04T13:04:30.927Z,8.60
2019-03-04T13:07:00.238Z,8.50
2019-03-04T13:09:29.701Z,8.50
2019-03-04T13:11:59.130Z,8.50
2019-03-04T13:14:28.531Z,8.40
2019-03-04T13:16:57.786Z,8.40
2019-03-04T13:19:29.219Z,8.70
2019-03-04T13:22:05.649Z,8.60
2019-03-04T13:24:29.461Z,8.60
2019-03-04T13:26:58.581Z,8.50
2019-03-04T13:29:29.381Z,8.50
2019-03-04T13:31:58.523Z,8.40
2019-03-04T13:34:27.673Z,8.30
2019-03-04T13:36:56.821Z,8.30
2019-03-04T13:39:25.965Z,8.50
2019-03-04T13:41:55.126Z,8.40
2019-03-04T13:44:24.323Z,8.40
2019-03-04T13:46:53.555Z,8.50
2019-03-04T13:49:22.760Z,8.60
2019-03-04T13:51:51.912Z,8.50
2019-03-04T13:54:21.036Z,8.50
2019-03-04T13:56:50.187Z,8.50
2019-03-04T13:59:19.388Z,8.80
2019-03-04T14:01:48.618Z,8.90
2019-03-04T14:04:17.779Z,8.90
2019-03-04T14:06:47.016Z,8.80
2019-03-04T14:09:19.569Z,8.80
2019-03-04T14:11:48.652Z,8.60
2019-03-04T14:14:17.838Z,8.50
2019-03-04T14:16:47.046Z,8.50
2019-03-04T14:19:16.192Z,8.80
2019-03-04T14:21:45.338Z,8.80
2019-03-04T14:24:14.456Z,8.90
2019-03-04T14:26:43.672Z,9.00
2019-03-04T14:29:12.773Z,8.90
2019-03-04T14:31:41.938Z,9.00
2019-03-04T14:34:11.133Z,8.90
2019-03-04T14:36:40.271Z,8.80
2019-03-04T14:39:14.833Z,8.70
2019-03-04T14:41:44.499Z,8.50
2019-03-04T14:44:13.615Z,8.50
2019-03-04T14:46:42.745Z,8.40
2019-03-04T14:49:14.373Z,8.40
2019-03-04T14:51:43.521Z,8.50
2019-03-04T14:54:13.399Z,8.60
2019-03-04T14:56:42.543Z,8.80
2019-03-04T14:59:11.979Z,9.00
2019-03-04T15:01:41.299Z,9.10
2019-03-04T15:04:10.466Z,9.00
2019-03-04T15:06:39.637Z,9.00
2019-03-04T15:09:13.619Z,8.80
2019-03-04T15:11:42.761Z,8.70
2019-03-04T15:14:12.002Z,8.60
2019-03-04T15:16:41.230Z,8.70
2019-03-04T15:19:10.508Z,8.70
2019-03-04T15:21:40.272Z,8.80
2019-03-04T15:24:09.405Z,8.90
2019-03-04T15:26:43.840Z,8.90
2019-03-04T15:29:09.656Z,9.10
2019-03-04T15:31:38.804Z,9.30
2019-03-04T15:34:07.920Z,9.40
2019-03-04T15:36:37.121Z,9.30
2019-03-04T15:39:22.519Z,9.20
2019-03-04T15:41:45.473Z,9.10
2019-03-04T15:44:14.794Z,9.00
2019-03-04T15:46:44.268Z,8.90
2019-03-04T15:49:13.561Z,8.90
2019-03-04T15:51:42.836Z,9.10
2019-03-04T15:54:11.984Z,9.20
2019-03-04T15:56:41.180Z,9.20
2019-03-04T15:59:10.373Z,9.00
2019-03-04T16:01:39.503Z,8.80
2019-03-04T16:04:08.643Z,8.70
2019-03-04T16:06:37.807Z,8.60
2019-03-04T16:09:12.533Z,8.50
2019-03-04T16:11:41.689Z,8.40
2019-03-04T16:14:10.963Z,8.40
2019-03-04T16:16:40.232Z,8.50
2019-03-04T16:19:09.416Z,8.50
2019-03-04T16:21:38.594Z,8.40
2019-03-04T16:24:07.717Z,8.50
2019-03-04T16:26:36.950Z,8.50
2019-03-04T16:29:06.098Z,8.50
2019-03-04T16:31:35.218Z,8.50
2019-03-04T16:34:04.360Z,8.40
2019-03-04T16:36:33.501Z,8.40
2019-03-04T16:39:03.947Z,8.40
2019-03-04T16:41:33.214Z,8.30
2019-03-04T16:44:03.626Z,8.30
2019-03-04T16:46:32.726Z,8.30
2019-03-04T16:49:01.976Z,8.30
2019-03-04T16:51:31.066Z,8.20
2019-03-04T16:54:00.262Z,8.10
2019-03-04T16:56:29.469Z,8.10
2019-03-04T16:58:58.559Z,8.00
2019-03-04T17:01:29.884Z,7.90
2019-03-04T17:03:59.124Z,7.90
2019-03-04T17:06:28.266Z,7.80
2019-03-04T17:08:57.498Z,7.80
2019-03-04T17:11:26.679Z,7.70
2019-03-04T17:13:55.858Z,7.70
2019-03-04T17:16:25.082Z,7.60
2019-03-04T17:18:54.160Z,7.60
2019-03-04T17:21:34.867Z,7.60
2019-03-04T17:24:04.455Z,7.50
2019-03-04T17:26:33.685Z,7.50
2019-03-04T17:29:04.733Z,7.50
2019-03-04T17:31:34.516Z,7.40
2019-03-04T17:34:03.606Z,7.40
2019-03-04T17:36:56.221Z,7.40
2019-03-04T17:39:30.823Z,7.40
2019-03-04T17:42:00.299Z,7.40
2019-03-04T17:44:31.689Z,7.30
2019-03-04T17:47:01.161Z,7.30
2019-03-04T17:49:30.629Z,7.30
2019-03-04T17:52:00.806Z,7.30
2019-03-04T17:54:29.902Z,7.30
2019-03-04T17:56:59.382Z,7.40
2019-03-04T17:59:28.804Z,7.40
2019-03-04T18:01:58.337Z,7.30
2019-03-04T18:04:27.504Z,7.30
2019-03-04T18:06:58.468Z,7.30
2019-03-04T18:09:27.596Z,7.30
2019-03-04T18:11:56.740Z,7.30
2019-03-04T18:14:25.872Z,7.30
2019-03-04T18:16:54.982Z,7.30
2019-03-04T18:19:24.128Z,7.30
2019-03-04T18:21:53.342Z,7.30
2019-03-04T18:24:23.263Z,7.20
2019-03-04T18:27:19.489Z,7.10
2019-03-04T18:30:38.962Z,7.10
2019-03-04T18:33:57.535Z,7.10
2019-03-04T18:36:45.088Z,7.10
2019-03-04T18:39:57.086Z,7.10
2019-03-04T18:43:07.411Z,7.10
2019-03-04T18:46:11.639Z,7.10
2019-03-04T18:48:58.172Z,7.10
2019-03-04T18:51:33.555Z,7.10
2019-03-04T18:54:21.853Z,7.00
2019-03-04T18:56:50.991Z,7.10
2019-03-04T18:59:20.385Z,7.10
2019-03-04T19:01:51.113Z,7.10
2019-03-04T19:04:20.378Z,7.10
2019-03-04T19:06:52.768Z,7.10
2019-03-04T19:09:21.922Z,7.20
2019-03-04T19:11:51.369Z,7.20
2019-03-04T19:14:20.480Z,7.20
2019-03-04T19:16:49.600Z,7.20
2019-03-04T19:19:22.015Z,7.20
2019-03-04T19:21:51.259Z,7.20
2019-03-04T19:24:20.442Z,7.20
2019-03-04T19:26:50.962Z,7.20
2019-03-04T19:29:20.106Z,7.20
2019-03-04T19:31:49.306Z,7.20
2019-03-04T19:34:19.001Z,7.20
2019-03-04T19:36:48.109Z,7.20
2019-03-04T19:39:19.219Z,7.20
2019-03-04T19:41:49.385Z,7.20
2019-03-04T19:44:20.077Z,7.20
2019-03-04T19:46:49.555Z,7.10
2019-03-04T19:49:18.807Z,7.10
2019-03-04T19:51:47.933Z,7.10
2019-03-04T19:54:17.900Z,7.10
2019-03-04T19:56:47.141Z,7.10
2019-03-04T19:59:19.520Z,7.10
2019-03-04T20:01:49.487Z,7.20
2019-03-04T20:04:19.315Z,7.20
2019-03-04T20:06:48.492Z,7.30
2019-03-04T20:09:17.683Z,7.30
2019-03-04T20:11:46.946Z,7.30
2019-03-04T20:14:16.119Z,7.30
2019-03-04T20:16:45.294Z,7.40
2019-03-04T20:19:14.603Z,7.30
2019-03-04T20:21:43.728Z,7.40
2019-03-04T20:24:12.890Z,7.40
2019-03-04T20:26:42.155Z,7.40
2019-03-04T20:29:11.377Z,7.40
2019-03-04T20:31:40.611Z,7.40
2019-03-04T20:34:12.696Z,7.40
2019-03-04T20:36:41.892Z,7.40
2019-03-04T20:39:14.823Z,7.40
2019-03-04T20:41:43.948Z,7.40
2019-03-04T20:44:15.841Z,7.40
2019-03-04T20:46:45.041Z,7.40
2019-03-04T20:49:18.170Z,7.40
2019-03-04T20:51:47.328Z,7.40
2019-03-04T20:54:16.707Z,7.50
2019-03-04T20:56:46.282Z,7.50
2019-03-04T20:59:15.489Z,7.50
2019-03-04T21:01:44.798Z,7.50
2019-03-04T21:04:17.061Z,7.50
2019-03-04T21:06:46.675Z,7.50
2019-03-04T21:09:16.486Z,7.40
2019-03-04T21:11:45.593Z,7.40
2019-03-04T21:14:16.958Z,7.40
2019-03-04T21:16:47.460Z,7.30
2019-03-04T21:19:16.568Z,7.20
2019-03-04T21:21:45.704Z,7.20
2019-03-04T21:24:16.381Z,7.20
2019-03-04T21:26:47.648Z,7.10
2019-03-04T21:29:33.151Z,7.10
2019-03-04T21:32:15.785Z,7.00
2019-03-04T21:35:19.258Z,7.00
2019-03-04T21:37:49.838Z,6.90
2019-03-04T21:40:24.436Z,6.90
2019-03-04T21:43:07.444Z,6.90
2019-03-04T21:46:02.943Z,6.90
2019-03-04T21:48:43.056Z,6.80
2019-03-04T21:51:40.756Z,6.80
2019-03-04T21:54:10.357Z,6.80
2019-03-04T21:57:17.567Z,6.80
2019-03-04T21:59:46.701Z,6.80
2019-03-04T22:02:22.640Z,6.80
2019-03-04T22:04:52.103Z,6.80
2019-03-04T22:07:21.231Z,6.80
2019-03-04T22:09:50.666Z,6.80
2019-03-04T22:12:20.844Z,6.80
2019-03-04T22:14:50.351Z,6.70
2019-03-04T22:17:19.562Z,6.70
2019-03-04T22:19:48.761Z,6.70
2019-03-04T22:22:17.938Z,6.70
2019-03-04T22:24:47.179Z,6.70
2019-03-04T22:27:16.331Z,6.60
2019-03-04T22:29:45.452Z,6.60
2019-03-04T22:32:14.689Z,6.70
2019-03-04T22:34:43.808Z,6.60
2019-03-04T22:37:12.955Z,6.60
2019-03-04T22:39:42.189Z,6.60
2019-03-04T22:42:12.903Z,6.60
2019-03-04T22:44:42.526Z,6.60
2019-03-04T22:47:11.582Z,6.60
2019-03-04T22:49:41.187Z,6.60
2019-03-04T22:52:10.364Z,6.60
2019-03-04T22:54:39.524Z,6.50
2019-03-04T22:57:09.979Z,6.50
2019-03-04T22:59:40.974Z,6.40
2019-03-04T23:02:10.352Z,6.40
2019-03-04T23:05:00.515Z,6.40
2019-03-04T23:07:41.580Z,6.40
2019-03-04T23:10:44.647Z,6.40
2019-03-04T23:13:46.562Z,6.40
2019-03-04T23:16:18.698Z,6.40
2019-03-04T23:18:49.128Z,6.30
2019-03-04T23:21:18.469Z,6.30
2019-03-04T23:23:47.607Z,6.40
2019-03-04T23:26:16.731Z,6.50
2019-03-04T23:28:45.824Z,6.50
2019-03-04T23:31:14.932Z,6.50
